Date,TemperatureHighF,TemperatureAvgF,TemperatureLowF,DewpointHighF,DewpointAvgF,DewpointLowF,HumidityHigh,HumidityAvg,HumidityLow,PressureMaxIn,PressureMinIn,WindSpeedMaxMPH,WindSpeedAvgMPH,GustSpeedMaxMPH,PrecipitationSumIn
2013-3-1,84.4,55.6,33.1,32.1,3.8,-40.5,68,29,1,30.30,30.12,7,2,0,0.00
2013-3-2,92.5,63.8,38.8,34.7,11.4,-34.2,76,30,1,30.27,30.03,6,2,0,0.00
2013-3-3,84.2,64.9,43.5,35.5,2.0,-35.2,64,24,1,30.07,29.86,12,3,0,0.00
2013-3-4,76.5,64.9,53.1,37.1,23.4,-37.2,51,28,1,30.01,29.81,21,5,0,0.00
2013-3-5,82.2,63.6,44.6,38.3,16.1,-33.0,67,32,1,30.05,29.88,17,3,0,0.00
2013-3-6,87.4,67.4,52.2,40.5,16.6,-31.8,59,29,1,29.98,29.80,12,2,0,0.00
2013-3-7,82.0,64.8,46.4,39.7,12.7,-34.8,66,29,1,29.92,29.78,12,3,0,0.00
2013-3-8,67.8,58.7,44.4,50.2,41.2,32.9,78,53,34,29.91,29.69,24,7,0,0.01
2013-3-9,58.3,49.0,43.7,41.7,39.3,36.4,87,70,53,30.02,29.90,14,4,0,0.00
2013-3-10,73.2,54.0,40.1,43.0,38.0,29.6,92,60,22,30.10,29.98,14,3,0,0.00
2013-3-11,80.1,57.6,38.7,39.4,29.6,-33.1,86,48,1,30.13,29.93,9,3,0,0.00
2013-3-12,89.4,62.5,40.1,44.0,24.3,-29.4,82,42,1,30.04,29.89,10,2,0,0.00
2013-3-13,97.2,69.8,46.2,41.2,13.6,-29.1,71,31,1,30.09,29.92,7,2,0,0.00
2013-3-14,100.2,73.1,48.2,38.0,5.2,-34.3,55,21,1,30.07,29.90,8,2,0,0.00
2013-3-15,98.1,73.6,52.7,34.9,3.9,-33.2,43,17,1,30.00,29.80,16,3,0,0.00
2013-3-16,91.0,72.6,51.4,35.2,-6.3,-39.4,50,15,1,29.85,29.63,17,4,0,0.00
2013-3-17,85.5,68.9,52.2,30.9,-1.3,-39.5,38,15,1,29.84,29.70,23,5,0,0.00
2013-3-18,90.0,68.3,51.6,38.9,9.8,-33.6,50,23,1,29.94,29.80,12,3,0,0.00
2013-3-19,85.1,67.2,51.3,41.0,17.5,-31.5,56,27,1,29.95,29.85,13,3,0,0.00
2013-3-20,86.5,68.2,50.4,39.4,12.2,-32.0,57,26,1,29.97,29.78,9,3,0,0.00
2013-3-21,79.3,67.3,53.2,39.2,36.2,33.4,51,33,20,29.78,29.63,9,2,0,0.00
2013-3-22,83.5,70.2,57.2,40.2,23.8,-30.9,48,26,1,29.72,29.57,19,5,0,0.00
2013-3-23,77.2,63.8,50.2,38.4,-0.8,-43.1,54,21,1,29.91,29.72,18,4,0,0.00
2013-3-24,80.2,60.9,41.9,21.1,-16.6,-44.4,42,12,1,29.95,29.77,16,3,0,0.00
2013-3-25,84.7,65.3,42.4,24.7,-10.2,-45.2,40,12,1,29.95,29.79,10,3,0,0.00
2013-3-26,93.4,71.2,53.6,29.1,-9.1,-37.9,34,11,1,29.92,29.71,14,3,0,0.00
2013-3-27,89.6,71.2,52.0,29.8,-10.0,-38.6,36,11,1,29.91,29.80,13,4,0,0.00
2013-3-28,87.4,71.4,54.1,35.6,-4.7,-35.2,38,13,1,29.98,29.85,12,4,0,0.00
2013-3-29,92.8,73.0,54.9,34.1,-4.0,-39.0,39,13,1,30.02,29.88,13,3,0,0.00
2013-3-30,90.7,72.0,56.1,34.1,2.8,-32.5,33,15,1,29.99,29.83,11,3,0,0.00
2013-3-31,91.9,70.5,50.0,36.8,3.0,-33.9,53,20,1,29.97,29.81,14,2,0,0.00